Time;durP1;ratioP1;P1;durP2;ratioP2;P2;SDS_P1;SDS_P2;PMS_P1;PMS_P2;Temp;Humidity;BMP_temperature;BMP_pressure;BME280_temperature;BME280_humidity;BME280_pressure;Samples;Min_cycle;Max_cycle;Signal;HPM_P1;HPM_P2
2022/10/24 00:02:07;;;;;;;4.03;1.50;;;19.40;99.90;;;;;;5052848;28;20918;-69
2022/10/24 00:04:38;;;;;;;5.57;1.77;;;19.40;99.90;;;;;;5053080;28;20961;-69
2022/10/24 00:07:05;;;;;;;5.10;1.83;;;19.40;99.90;;;;;;5051951;28;20433;-70
2022/10/24 00:09:32;;;;;;;4.73;1.43;;;19.20;99.90;;;;;;5052010;28;20406;-69
2022/10/24 00:11:58;;;;;;;6.13;1.53;;;19.20;99.90;;;;;;5052295;28;20817;-69
2022/10/24 00:14:24;;;;;;;7.83;1.77;;;19.20;99.90;;;;;;5052118;28;20408;-70
2022/10/24 00:16:50;;;;;;;3.80;1.53;;;19.10;99.90;;;;;;5050752;28;20322;-70
2022/10/24 00:19:15;;;;;;;5.83;1.90;;;19.10;99.90;;;;;;5051945;28;20903;-70
2022/10/24 00:21:41;;;;;;;5.00;1.70;;;19.10;99.90;;;;;;5052016;28;20167;-70
2022/10/24 00:24:07;;;;;;;4.50;1.70;;;19.10;99.90;;;;;;5052293;28;20296;-70
2022/10/24 00:26:34;;;;;;;5.77;2.03;;;19.10;99.90;;;;;;5052125;28;20714;-70
2022/10/24 00:29:00;;;;;;;5.97;2.10;;;19.00;99.90;;;;;;5051936;28;20405;-69
2022/10/24 00:31:26;;;;;;;3.47;1.63;;;19.10;99.90;;;;;;5050904;28;20762;-70
2022/10/24 00:33:52;;;;;;;6.57;2.20;;;19.00;99.90;;;;;;5052003;28;20872;-70
2022/10/24 00:36:20;;;;;;;4.87;1.67;;;19.00;99.90;;;;;;5052055;28;20423;-70
2022/10/24 00:38:47;;;;;;;4.23;1.83;;;19.00;99.90;;;;;;5052043;28;20231;-70
2022/10/24 00:41:28;;;;;;;4.80;1.90;;;19.00;99.90;;;;;;5052026;28;20413;-69
2022/10/24 00:44:12;;;;;;;4.60;1.80;;;18.90;99.90;;;;;;5052386;28;20397;-70
2022/10/24 00:46:40;;;;;;;7.30;1.80;;;19.00;99.90;;;;;;5051215;28;20519;-70
2022/10/24 00:49:12;;;;;;;5.90;1.40;;;19.00;99.90;;;;;;5048930;28;20433;-69
2022/10/24 00:51:38;;;;;;;7.30;1.80;;;18.90;99.90;;;;;;5042828;28;20413;-69
2022/10/24 00:54:07;;;;;;;5.30;2.10;;;18.90;99.90;;;;;;5051743;28;20405;-69
2022/10/24 00:57:00;;;;;;;6.13;1.80;;;18.90;99.90;;;;;;5051615;28;20186;-71
2022/10/24 00:59:27;;;;;;;4.77;1.77;;;18.90;99.90;;;;;;5051911;28;20385;-70
2022/10/24 01:01:53;;;;;;;9.90;2.07;;;18.90;99.90;;;;;;5051191;28;20421;-71
2022/10/24 01:04:18;;;;;;;8.10;2.00;;;18.90;99.90;;;;;;5051790;28;20416;-70
2022/10/24 01:06:51;;;;;;;4.63;2.07;;;18.90;99.90;;;;;;5051422;28;20614;-71
2022/10/24 01:09:38;;;;;;;5.13;2.13;;;18.90;99.90;;;;;;5052217;28;20181;-70
2022/10/24 01:12:10;;;;;;;8.10;2.27;;;18.90;99.90;;;;;;5055817;28;20804;-70
2022/10/24 01:15:08;;;;;;;6.33;1.67;;;18.80;99.90;;;;;;5055726;28;20729;-70
2022/10/24 01:18:01;;;;;;;4.97;1.77;;;18.60;99.90;;;;;;5052046;28;20873;-71
2022/10/24 01:20:27;;;;;;;6.20;1.90;;;18.60;99.90;;;;;;5044847;28;20405;-70
2022/10/24 01:23:15;;;;;;;7.37;2.17;;;18.60;99.90;;;;;;5035740;28;20930;-71
2022/10/24 01:26:15;;;;;;;8.03;2.30;;;18.70;99.90;;;;;;5035943;28;20175;-71
2022/10/24 01:29:09;;;;;;;7.33;2.50;;;18.70;99.90;;;;;;5035566;28;20383;-71
2022/10/24 01:31:47;;;;;;;8.80;2.30;;;18.80;99.90;;;;;;5034565;28;20420;-71
2022/10/24 01:34:35;;;;;;;4.70;1.87;;;18.80;99.90;;;;;;5035522;28;20417;-71
2022/10/24 01:37:05;;;;;;;4.97;2.20;;;18.70;99.90;;;;;;5035295;28;20464;-71
2022/10/24 01:39:39;;;;;;;5.20;2.10;;;18.70;99.90;;;;;;5035194;28;20456;-71
2022/10/24 01:42:06;;;;;;;4.77;2.43;;;18.60;99.90;;;;;;5035157;28;20377;-71
2022/10/24 01:44:40;;;;;;;5.97;2.20;;;18.60;99.90;;;;;;5035192;28;20445;-71
2022/10/24 01:47:18;;;;;;;6.33;2.63;;;18.50;99.90;;;;;;5042741;28;20949;-71
2022/10/24 01:49:50;;;;;;;4.47;2.07;;;18.60;99.90;;;;;;5055052;28;20436;-71
2022/10/24 01:52:17;;;;;;;7.20;2.33;;;18.50;99.90;;;;;;5054924;28;20801;-71
2022/10/24 01:54:45;;;;;;;8.87;2.20;;;18.50;99.90;;;;;;5055143;28;20405;-70
2022/10/24 01:57:12;;;;;;;7.70;2.47;;;18.60;99.90;;;;;;5055375;28;20866;-70
2022/10/24 01:59:42;;;;;;;5.27;2.10;;;18.50;99.90;;;;;;5055333;28;20405;-70
2022/10/24 02:02:16;;;;;;;7.70;2.50;;;18.50;99.90;;;;;;5054726;28;20433;-70
2022/10/24 02:05:04;;;;;;;8.27;2.63;;;18.40;99.90;;;;;;5036695;28;21005;-70
2022/10/24 02:07:30;;;;;;;5.97;2.20;;;18.40;99.90;;;;;;5054752;28;20424;-70
2022/10/24 02:10:00;;;;;;;5.90;2.17;;;18.40;99.90;;;;;;5054770;28;20782;-70
2022/10/24 02:12:27;;;;;;;4.93;1.83;;;18.30;99.90;;;;;;5055126;28;20401;-70
2022/10/24 02:15:03;;;;;;;6.97;1.80;;;18.20;99.90;;;;;;5054545;28;20401;-70
2022/10/24 02:17:30;;;;;;;4.20;1.80;;;18.30;99.90;;;;;;5052995;28;21113;-71
2022/10/24 02:19:56;;;;;;;8.00;2.63;;;18.30;99.90;;;;;;5036320;28;20945;-70
2022/10/24 02:22:48;;;;;;;14.37;1.97;;;18.30;99.90;;;;;;5054834;28;20508;-71
2022/10/24 02:25:23;;;;;;;5.83;1.80;;;18.30;99.90;;;;;;5054505;28;20962;-70
2022/10/24 02:28:04;;;;;;;6.03;1.97;;;18.30;99.90;;;;;;5054115;28;20528;-70
2022/10/24 02:30:36;;;;;;;5.17;2.20;;;18.30;99.90;;;;;;5036641;28;20808;-70
2022/10/24 02:33:01;;;;;;;7.77;1.70;;;18.20;99.90;;;;;;5054065;28;20389;-70
2022/10/24 02:35:31;;;;;;;6.43;2.20;;;18.20;99.90;;;;;;5054724;28;20405;-70
2022/10/24 02:38:03;;;;;;;8.00;2.50;;;18.20;99.90;;;;;;5054045;28;20694;-70
2022/10/24 02:40:30;;;;;;;6.30;2.10;;;18.20;99.90;;;;;;5054448;28;20400;-70
2022/10/24 02:42:57;;;;;;;4.90;1.80;;;18.10;99.90;;;;;;5053949;28;20404;-70
2022/10/24 02:45:24;;;;;;;4.87;2.10;;;18.00;99.90;;;;;;5053841;28;20808;-70
2022/10/24 02:47:55;;;;;;;6.83;2.53;;;17.80;99.90;;;;;;5053174;28;20429;-70
2022/10/24 02:50:21;;;;;;;6.70;2.97;;;17.90;99.90;;;;;;5054238;28;20484;-70
2022/10/24 02:52:47;;;;;;;4.63;2.00;;;17.90;99.90;;;;;;5053732;28;20416;-70
2022/10/24 02:55:13;;;;;;;6.30;1.80;;;17.90;99.90;;;;;;5053651;28;20401;-70
2022/10/24 02:57:39;;;;;;;5.50;2.00;;;17.80;99.90;;;;;;5053721;28;20429;-70
2022/10/24 03:00:05;;;;;;;7.27;2.47;;;17.80;99.90;;;;;;5053483;28;20514;-70
2022/10/24 03:02:31;;;;;;;6.73;3.30;;;17.80;99.90;;;;;;5053012;28;20170;-69
2022/10/24 03:04:56;;;;;;;5.77;1.90;;;17.80;99.90;;;;;;5053625;28;20452;-70
2022/10/24 03:07:22;;;;;;;10.00;2.90;;;17.90;99.90;;;;;;5053597;28;20218;-69
2022/10/24 03:09:47;;;;;;;6.60;2.40;;;17.80;99.90;;;;;;5053435;28;20249;-70
2022/10/24 03:12:15;;;;;;;6.07;2.43;;;17.80;99.90;;;;;;5054025;28;20228;-70
2022/10/24 03:14:40;;;;;;;9.37;3.00;;;17.90;99.90;;;;;;5053520;28;20632;-70
2022/10/24 03:17:06;;;;;;;7.03;2.40;;;18.00;99.90;;;;;;5051833;28;20448;-70
2022/10/24 03:19:31;;;;;;;10.10;2.70;;;18.00;99.90;;;;;;5053107;28;20594;-70
2022/10/24 03:21:57;;;;;;;5.33;2.70;;;18.00;99.90;;;;;;5053441;28;20174;-70
2022/10/24 03:24:23;;;;;;;6.50;2.63;;;18.10;99.90;;;;;;5053175;28;20203;-70
2022/10/24 03:26:51;;;;;;;6.63;3.10;;;18.00;99.90;;;;;;5053241;28;20210;-70
2022/10/24 03:29:19;;;;;;;12.27;2.93;;;18.10;99.90;;;;;;5053246;28;20178;-70
2022/10/24 03:31:45;;;;;;;7.90;2.77;;;18.10;99.90;;;;;;5051975;28;20442;-71
2022/10/24 03:34:11;;;;;;;9.33;3.40;;;18.10;99.90;;;;;;5034723;28;20430;-70
2022/10/24 03:36:36;;;;;;;6.80;3.30;;;18.10;99.90;;;;;;5052881;28;20421;-70
2022/10/24 03:39:03;;;;;;;11.13;3.33;;;18.00;99.90;;;;;;5052828;28;20165;-69
2022/10/24 03:41:29;;;;;;;6.53;2.50;;;18.00;99.90;;;;;;5052832;28;20197;-72
2022/10/24 03:43:55;;;;;;;10.93;4.30;;;18.00;99.90;;;;;;5052730;28;20415;-72
2022/10/24 03:46:21;;;;;;;9.77;3.27;;;17.90;99.90;;;;;;5053081;28;20570;-71
2022/10/24 03:48:46;;;;;;;7.63;3.17;;;17.80;99.90;;;;;;5052903;28;20248;-70
2022/10/24 03:51:12;;;;;;;6.90;2.70;;;17.70;99.90;;;;;;5053128;28;20170;-72
2022/10/24 03:53:37;;;;;;;8.00;3.20;;;17.70;99.90;;;;;;5053098;28;20177;-73
2022/10/24 03:56:03;;;;;;;6.20;2.93;;;17.60;99.90;;;;;;5053352;28;20174;-71
2022/10/24 03:58:29;;;;;;;7.13;2.97;;;17.60;99.90;;;;;;5052737;28;20539;-72
2022/10/24 04:00:57;;;;;;;14.50;3.40;;;17.50;99.90;;;;;;5052697;28;20413;-70
2022/10/24 04:03:24;;;;;;;7.33;3.27;;;17.50;99.90;;;;;;5052085;28;20216;-69
2022/10/24 04:05:49;;;;;;;7.70;3.20;;;17.50;99.90;;;;;;5052428;28;20447;-72
2022/10/24 04:08:15;;;;;;;6.70;2.97;;;17.50;99.90;;;;;;5052433;28;20424;-69
2022/10/24 04:10:41;;;;;;;7.40;2.70;;;17.50;99.90;;;;;;5049265;28;20608;-70
2022/10/24 04:13:06;;;;;;;6.03;3.07;;;17.40;99.90;;;;;;5043730;28;20595;-70
2022/10/24 04:15:32;;;;;;;5.97;2.77;;;17.50;99.90;;;;;;5052887;28;20179;-70
2022/10/24 04:17:57;;;;;;;7.07;2.70;;;17.50;99.90;;;;;;5051103;28;20213;-71
2022/10/24 04:20:23;;;;;;;7.43;2.90;;;17.50;99.90;;;;;;5052569;28;20173;-69
2022/10/24 04:22:48;;;;;;;7.30;3.23;;;17.50;99.90;;;;;;5052325;28;20539;-71
2022/10/24 04:25:15;;;;;;;6.33;3.00;;;17.50;99.90;;;;;;5051634;28;20190;-70
2022/10/24 04:27:41;;;;;;;11.23;3.20;;;17.50;99.90;;;;;;5052118;28;20186;-70
2022/10/24 04:30:12;;;;;;;9.50;3.30;;;17.50;99.90;;;;;;5052195;28;20461;-70
2022/10/24 04:32:37;;;;;;;8.23;3.33;;;17.50;99.90;;;;;;5051476;28;20259;-70
2022/10/24 04:35:04;;;;;;;8.80;2.90;;;17.50;99.90;;;;;;5034082;28;20506;-70
2022/10/24 04:37:30;;;;;;;12.97;2.97;;;17.60;99.90;;;;;;5052063;28;20193;-70
2022/10/24 04:39:55;;;;;;;10.07;2.60;;;17.70;99.90;;;;;;5051614;28;20427;-70
2022/10/24 04:42:22;;;;;;;9.57;3.20;;;17.70;99.90;;;;;;5052057;28;20182;-70
2022/10/24 04:44:48;;;;;;;15.07;3.70;;;17.70;99.90;;;;;;5050537;28;20193;-70
2022/10/24 04:47:13;;;;;;;7.10;3.17;;;17.60;99.90;;;;;;5051749;28;20930;-70
2022/10/24 04:49:39;;;;;;;6.33;3.20;;;17.50;99.90;;;;;;5051755;28;20185;-70
2022/10/24 04:52:05;;;;;;;5.93;2.80;;;17.50;99.90;;;;;;5051861;28;20169;-71
2022/10/24 04:54:31;;;;;;;8.17;3.40;;;17.50;99.90;;;;;;5051671;28;20165;-70
2022/10/24 04:56:56;;;;;;;7.50;2.90;;;17.50;99.90;;;;;;5051279;28;20182;-70
2022/10/24 04:59:22;;;;;;;6.57;2.80;;;17.50;99.90;;;;;;5051368;28;20215;-70
2022/10/24 05:01:47;;;;;;;9.03;3.10;;;17.60;99.90;;;;;;5051629;28;20218;-70
2022/10/24 05:04:13;;;;;;;16.67;3.50;;;17.70;99.90;;;;;;5033621;28;20171;-70
2022/10/24 05:06:39;;;;;;;11.50;3.23;;;17.80;99.90;;;;;;5051651;28;20211;-70
2022/10/24 05:09:04;;;;;;;7.13;2.40;;;17.80;99.90;;;;;;5051666;28;20196;-70
2022/10/24 05:11:30;;;;;;;6.40;3.00;;;17.80;99.90;;;;;;5051184;28;20253;-69
2022/10/24 05:13:56;;;;;;;7.27;2.67;;;17.90;99.90;;;;;;5051573;28;20180;-70
2022/10/24 05:16:22;;;;;;;8.20;3.23;;;17.80;99.90;;;;;;5050609;28;20182;-70
2022/10/24 05:18:48;;;;;;;6.70;2.80;;;17.70;99.90;;;;;;5050718;28;20524;-70
2022/10/24 05:21:14;;;;;;;9.20;2.60;;;17.90;99.90;;;;;;5051813;28;20189;-70
2022/10/24 05:23:39;;;;;;;9.10;2.77;;;17.80;99.90;;;;;;5051548;28;20445;-70
2022/10/24 05:26:05;;;;;;;6.37;2.70;;;17.80;99.90;;;;;;5051520;28;20280;-70
2022/10/24 05:28:31;;;;;;;11.67;3.00;;;18.00;99.90;;;;;;5051572;28;20194;-70
2022/10/24 05:30:56;;;;;;;10.53;3.07;;;18.10;99.90;;;;;;5051513;28;20179;-70
2022/10/24 05:33:22;;;;;;;7.97;3.50;;;18.10;99.90;;;;;;5051275;28;20266;-70
2022/10/24 05:35:49;;;;;;;9.63;2.77;;;18.20;99.90;;;;;;5049858;28;20266;-70
2022/10/24 05:38:15;;;;;;;8.53;3.30;;;18.20;99.90;;;;;;5051432;28;20194;-70
2022/10/24 05:40:40;;;;;;;7.60;3.20;;;18.20;99.90;;;;;;5052205;28;20467;-70
2022/10/24 05:43:06;;;;;;;6.73;2.33;;;18.30;99.90;;;;;;5051498;28;20162;-71
2022/10/24 05:45:32;;;;;;;4.87;2.53;;;18.30;99.90;;;;;;5051361;28;20214;-71
2022/10/24 05:47:57;;;;;;;8.00;2.97;;;18.30;99.90;;;;;;5051498;28;20194;-71
2022/10/24 05:50:23;;;;;;;7.03;2.47;;;18.40;99.90;;;;;;5050756;28;20242;-71
2022/10/24 05:52:49;;;;;;;5.93;2.50;;;18.40;99.90;;;;;;5051603;28;20189;-70
2022/10/24 05:55:14;;;;;;;7.13;2.90;;;18.30;99.90;;;;;;5051712;28;20181;-71
2022/10/24 05:57:40;;;;;;;6.40;1.90;;;18.40;99.90;;;;;;5055000;28;20304;-71
2022/10/24 06:00:08;;;;;;;8.27;2.80;;;18.50;99.90;;;;;;5054458;28;20213;-71
2022/10/24 06:02:33;;;;;;;3.87;1.90;;;18.40;99.90;;;;;;5054717;28;20203;-71
2022/10/24 06:04:59;;;;;;;5.37;2.77;;;18.30;99.90;;;;;;5054656;28;20503;-71
2022/10/24 06:07:25;;;;;;;10.93;4.13;;;18.30;99.90;;;;;;5054437;28;20178;-70
2022/10/24 06:09:50;;;;;;;10.10;3.10;;;18.40;99.90;;;;;;5055110;28;20178;-70
2022/10/24 06:12:16;;;;;;;10.27;3.30;;;17.90;99.90;;;;;;5054848;28;20163;-70
2022/10/24 06:14:43;;;;;;;5.43;3.27;;;17.50;99.90;;;;;;5054356;28;20174;-70
2022/10/24 06:17:10;;;;;;;4.50;3.00;;;17.40;99.90;;;;;;5034738;28;20239;-71
2022/10/24 06:19:37;;;;;;;7.03;3.20;;;17.20;99.90;;;;;;5054214;28;20782;-70
2022/10/24 06:22:04;;;;;;;7.33;2.93;;;17.30;99.90;;;;;;5054703;28;20405;-70
2022/10/24 06:24:30;;;;;;;6.83;2.50;;;17.30;99.90;;;;;;5054299;28;20398;-70
2022/10/24 06:26:55;;;;;;;8.30;2.80;;;17.30;99.90;;;;;;5054391;28;20432;-70
2022/10/24 06:29:21;;;;;;;5.80;3.40;;;17.30;99.90;;;;;;5054444;28;20236;-68
2022/10/24 06:31:46;;;;;;;9.67;3.70;;;17.30;99.90;;;;;;5054287;28;20166;-70
2022/10/24 06:34:12;;;;;;;6.77;2.80;;;17.20;99.90;;;;;;5054332;28;20203;-70
2022/10/24 06:36:37;;;;;;;5.17;3.13;;;17.10;99.90;;;;;;5054539;28;20229;-69
2022/10/24 06:39:03;;;;;;;8.43;3.10;;;17.10;99.90;;;;;;5054813;28;20532;-70
2022/10/24 06:41:29;;;;;;;7.40;3.10;;;17.20;99.90;;;;;;5054118;28;20617;-69
2022/10/24 06:43:55;;;;;;;8.53;3.00;;;17.30;99.90;;;;;;5053845;28;20177;-70
2022/10/24 06:46:22;;;;;;;9.30;3.77;;;17.30;99.90;;;;;;5053858;28;20482;-70
2022/10/24 06:48:48;;;;;;;7.47;3.30;;;17.20;99.90;;;;;;5053294;28;20254;-69
2022/10/24 06:51:15;;;;;;;4.90;2.77;;;17.30;99.90;;;;;;5054057;28;20486;-70
2022/10/24 06:53:41;;;;;;;11.27;2.80;;;17.30;99.90;;;;;;5054062;28;20546;-70
2022/10/24 06:56:07;;;;;;;7.33;2.90;;;17.50;99.90;;;;;;5053516;28;21007;-70
2022/10/24 06:58:35;;;;;;;5.90;2.67;;;17.50;99.90;;;;;;5053565;28;20492;-70
2022/10/24 07:01:07;;;;;;;7.40;2.90;;;17.50;99.90;;;;;;5053797;28;20174;-70
2022/10/24 07:03:33;;;;;;;6.37;2.57;;;17.60;99.90;;;;;;5050153;28;20417;-70
2022/10/24 07:05:58;;;;;;;6.03;2.40;;;17.70;99.90;;;;;;5044385;28;20522;-70
2022/10/24 07:08:24;;;;;;;9.40;2.73;;;17.80;99.90;;;;;;5051935;28;20193;-70
2022/10/24 07:10:49;;;;;;;9.97;5.97;;;17.90;99.90;;;;;;5053396;28;20258;-70
2022/10/24 07:13:15;;;;;;;11.30;7.07;;;17.80;99.90;;;;;;5053234;28;20644;-71
2022/10/24 07:15:40;;;;;;;10.17;4.97;;;17.60;99.90;;;;;;5053052;28;20238;-71
2022/10/24 07:18:06;;;;;;;8.40;3.17;;;17.60;99.90;;;;;;5052331;28;20260;-70
2022/10/24 07:20:31;;;;;;;5.60;2.70;;;17.30;99.90;;;;;;5053537;28;20201;-71
2022/10/24 07:22:57;;;;;;;10.27;3.20;;;17.20;99.90;;;;;;5053360;28;20174;-70
2022/10/24 07:25:22;;;;;;;5.67;3.57;;;17.10;99.90;;;;;;5052985;28;20293;-71
2022/10/24 07:27:51;;;;;;;8.23;2.93;;;17.20;99.90;;;;;;5053262;28;20186;-70
2022/10/24 07:30:18;;;;;;;5.97;3.00;;;17.30;99.90;;;;;;5052868;28;20173;-70
2022/10/24 07:32:43;;;;;;;7.10;3.30;;;17.50;99.90;;;;;;5053017;28;20413;-71
2022/10/24 07:35:11;;;;;;;5.90;3.17;;;17.50;99.90;;;;;;5052937;28;20504;-70
2022/10/24 07:37:37;;;;;;;7.67;3.80;;;17.50;99.90;;;;;;5053039;28;20219;-70
2022/10/24 07:40:03;;;;;;;6.27;2.73;;;17.50;99.90;;;;;;5052695;28;20875;-70
2022/10/24 07:42:28;;;;;;;6.73;2.97;;;17.50;99.90;;;;;;5052760;28;20183;-70
2022/10/24 07:44:54;;;;;;;6.27;2.83;;;17.60;99.90;;;;;;5052205;28;20281;-70
2022/10/24 07:47:20;;;;;;;8.67;3.73;;;17.60;99.90;;;;;;5034194;28;20202;-70
2022/10/24 07:49:45;;;;;;;5.60;2.97;;;17.60;99.90;;;;;;5052410;28;20205;-71
2022/10/24 07:52:11;;;;;;;6.73;3.00;;;17.50;99.90;;;;;;5052634;28;20167;-70
2022/10/24 07:54:36;;;;;;;8.50;3.60;;;17.40;99.90;;;;;;5052470;28;20179;-70
2022/10/24 07:57:02;;;;;;;7.00;3.20;;;17.50;99.90;;;;;;5052422;28;20190;-70
2022/10/24 07:59:29;;;;;;;5.27;2.70;;;17.30;99.90;;;;;;5052269;28;20194;-71
2022/10/24 08:01:54;;;;;;;7.60;3.40;;;17.20;99.90;;;;;;5052399;28;20181;-71
2022/10/24 08:04:20;;;;;;;5.70;3.50;;;17.10;99.90;;;;;;5052295;28;20430;-71
2022/10/24 08:06:45;;;;;;;9.90;3.10;;;16.90;99.90;;;;;;5052202;28;20557;-70
2022/10/24 08:09:11;;;;;;;9.23;2.60;;;16.90;99.90;;;;;;5052367;28;20223;-70
2022/10/24 08:11:38;;;;;;;4.70;2.70;;;16.90;99.90;;;;;;5051672;28;20203;-70
2022/10/24 08:14:03;;;;;;;6.13;2.40;;;16.80;99.90;;;;;;5051465;28;20188;-70
2022/10/24 08:16:29;;;;;;;7.50;3.40;;;16.80;99.90;;;;;;5052385;28;20434;-70
2022/10/24 08:18:56;;;;;;;6.30;2.60;;;16.80;99.90;;;;;;5051305;28;20196;-70
2022/10/24 08:21:22;;;;;;;4.57;2.50;;;16.70;99.90;;;;;;5051997;28;20178;-70
2022/10/24 08:23:51;;;;;;;7.07;2.90;;;16.70;99.90;;;;;;5052184;28;20419;-70
2022/10/24 08:26:20;;;;;;;6.13;2.43;;;16.80;99.90;;;;;;5034150;28;20459;-70
2022/10/24 08:28:46;;;;;;;4.30;2.63;;;16.70;99.90;;;;;;5051782;28;20526;-71
2022/10/24 08:31:15;;;;;;;5.67;2.33;;;16.70;99.90;;;;;;5051713;28;20403;-70
2022/10/24 08:33:41;;;;;;;5.50;2.40;;;16.70;99.90;;;;;;5051412;28;20902;-70
2022/10/24 08:36:22;;;;;;;4.97;2.10;;;17.00;99.90;;;;;;5050532;28;20458;-71
2022/10/24 08:38:48;;;;;;;5.00;2.40;;;17.10;99.90;;;;;;5052021;28;20511;-70
2022/10/24 08:41:45;;;;;;;6.27;2.70;;;17.40;99.90;;;;;;5051824;28;20433;-71
2022/10/24 08:44:25;;;;;;;4.73;2.63;;;17.30;99.90;;;;;;5051794;28;20232;-70
2022/10/24 08:47:11;;;;;;;7.17;2.60;;;17.40;99.90;;;;;;5051723;28;20503;-71
2022/10/24 08:49:55;;;;;;;3.47;2.37;;;17.40;99.90;;;;;;5051524;28;20736;-71
2022/10/24 08:52:35;;;;;;;6.20;2.63;;;17.50;99.90;;;;;;5051470;28;20882;-70
2022/10/24 08:55:21;;;;;;;3.70;2.20;;;17.20;99.90;;;;;;5052048;28;20393;-70
2022/10/24 08:57:53;;;;;;;4.83;2.83;;;17.10;99.90;;;;;;5052081;28;20429;-70
2022/10/24 09:00:18;;;;;;;4.40;2.20;;;17.10;99.90;;;;;;5052035;28;20474;-71
2022/10/24 09:02:54;;;;;;;5.13;2.57;;;17.20;99.90;;;;;;5051751;28;20405;-70
2022/10/24 09:05:23;;;;;;;5.43;2.60;;;17.30;99.90;;;;;;5051218;28;20548;-71
2022/10/24 09:07:53;;;;;;;4.20;2.40;;;17.30;99.90;;;;;;5051529;28;20519;-71
2022/10/24 09:10:31;;;;;;;9.93;3.47;;;17.10;99.90;;;;;;5052039;28;20405;-70
2022/10/24 09:12:57;;;;;;;9.00;3.33;;;17.00;99.90;;;;;;5051857;28;20488;-71
2022/10/24 09:15:29;;;;;;;6.67;2.40;;;17.00;99.90;;;;;;5051862;28;20499;-70
2022/10/24 09:17:56;;;;;;;7.23;2.87;;;17.00;99.90;;;;;;5049883;28;20232;-71
2022/10/24 09:20:28;;;;;;;5.80;2.77;;;17.00;99.90;;;;;;5051975;28;20415;-71
2022/10/24 09:22:57;;;;;;;10.97;2.57;;;17.00;99.90;;;;;;5051782;28;20482;-71
2022/10/24 09:25:28;;;;;;;6.97;2.30;;;16.90;99.90;;;;;;5051384;28;20820;-70
2022/10/24 09:27:54;;;;;;;5.20;2.53;;;17.00;99.90;;;;;;5051501;28;20802;-70
2022/10/24 09:30:24;;;;;;;5.47;2.73;;;17.10;99.90;;;;;;5052041;28;20402;-71
2022/10/24 09:32:51;;;;;;;5.07;2.90;;;17.10;99.90;;;;;;5055557;28;20173;-71
2022/10/24 09:35:25;;;;;;;5.47;2.30;;;17.00;99.90;;;;;;5055317;28;20412;-71
2022/10/24 09:38:15;;;;;;;4.20;2.07;;;17.10;99.90;;;;;;5037173;28;20432;-70
2022/10/24 09:40:40;;;;;;;8.47;3.20;;;17.10;99.90;;;;;;5054939;28;20915;-71
2022/10/24 09:43:17;;;;;;;5.60;3.17;;;17.00;99.90;;;;;;5055451;28;20416;-71
2022/10/24 09:45:47;;;;;;;7.83;2.80;;;17.10;99.90;;;;;;5055530;28;20233;-71
2022/10/24 09:48:23;;;;;;;9.33;3.40;;;17.10;99.90;;;;;;5054606;28;20470;-71
2022/10/24 09:50:51;;;;;;;5.80;3.17;;;17.20;99.90;;;;;;5055314;28;20746;-72
2022/10/24 09:53:35;;;;;;;6.13;2.43;;;17.30;99.90;;;;;;5055186;28;20530;-72
2022/10/24 09:56:08;;;;;;;9.20;2.93;;;17.50;99.90;;;;;;5053195;28;20522;-71
2022/10/24 09:58:34;;;;;;;4.80;2.67;;;17.50;99.90;;;;;;5050742;28;20409;-71
2022/10/24 10:01:16;;;;;;;5.57;2.77;;;17.60;99.90;;;;;;5053460;28;20563;-71
2022/10/24 10:03:58;;;;;;;11.77;2.83;;;17.60;99.90;;;;;;5054376;28;20401;-71
2022/10/24 10:06:24;;;;;;;4.30;2.57;;;17.70;99.90;;;;;;5054656;28;20491;-71
2022/10/24 10:08:52;;;;;;;5.10;2.40;;;17.80;99.90;;;;;;5055219;28;20777;-71
2022/10/24 10:11:32;;;;;;;6.93;2.63;;;17.70;99.90;;;;;;5054592;28;20178;-71
2022/10/24 10:14:00;;;;;;;9.60;2.83;;;17.70;99.90;;;;;;5054207;28;20397;-71
2022/10/24 10:16:32;;;;;;;6.93;2.80;;;17.70;99.90;;;;;;5054745;28;20439;-71
2022/10/24 10:19:13;;;;;;;5.87;2.63;;;17.60;99.90;;;;;;5053117;28;20479;-69
2022/10/24 10:21:55;;;;;;;5.60;2.33;;;17.70;99.90;;;;;;5054737;28;20507;-71
2022/10/24 10:24:36;;;;;;;6.47;2.67;;;17.80;99.90;;;;;;5054873;28;20413;-71
2022/10/24 10:27:29;;;;;;;5.43;2.20;;;17.60;99.90;;;;;;5054900;28;20460;-71
2022/10/24 10:30:15;;;;;;;5.53;2.80;;;17.80;99.90;;;;;;5054643;28;20743;-71
2022/10/24 10:33:12;;;;;;;4.80;2.93;;;17.90;99.90;;;;;;5054032;28;20844;-71
2022/10/24 10:35:48;;;;;;;4.70;2.07;;;18.00;99.90;;;;;;5053763;28;20389;-71
2022/10/24 10:38:46;;;;;;;5.67;2.73;;;18.00;99.90;;;;;;5054284;28;20852;-71
2022/10/24 10:41:35;;;;;;;5.60;2.27;;;18.10;99.90;;;;;;5054293;28;20389;-71
2022/10/24 10:44:23;;;;;;;4.30;2.10;;;18.10;99.90;;;;;;5054407;28;20386;-71
2022/10/24 10:47:08;;;;;;;7.00;2.80;;;18.20;99.90;;;;;;5054155;28;20842;-72
2022/10/24 10:49:41;;;;;;;8.07;2.17;;;18.20;99.90;;;;;;5053597;28;20409;-71
2022/10/24 10:52:15;;;;;;;5.97;2.17;;;18.10;99.90;;;;;;5054054;28;20797;-71
2022/10/24 10:55:06;;;;;;;5.70;2.20;;;18.10;99.90;;;;;;5053856;28;20480;-71
2022/10/24 10:57:42;;;;;;;4.67;1.80;;;18.10;99.90;;;;;;5053841;28;20452;-71
2022/10/24 11:00:25;;;;;;;4.33;1.80;;;18.20;99.90;;;;;;5054130;28;20393;-71
2022/10/24 11:03:19;;;;;;;2.80;1.93;;;18.10;99.90;;;;;;5035673;28;20401;-71
2022/10/24 11:06:09;;;;;;;3.67;2.10;;;18.10;99.90;;;;;;5053651;28;20441;-71
2022/10/24 11:09:01;;;;;;;4.50;1.77;;;18.00;99.90;;;;;;5053943;28;20394;-71
2022/10/24 11:11:31;;;;;;;3.30;1.80;;;17.90;99.90;;;;;;5050517;28;20417;-70
2022/10/24 11:14:13;;;;;;;4.07;1.80;;;17.90;99.90;;;;;;5053763;28;20404;-70
2022/10/24 11:16:39;;;;;;;3.87;1.60;;;17.90;99.90;;;;;;5053191;28;20476;-72
2022/10/24 11:19:22;;;;;;;1.70;1.30;;;18.10;99.90;;;;;;5052357;28;20456;-71
2022/10/24 11:21:49;;;;;;;5.00;1.60;;;18.20;99.90;;;;;;5053431;28;20893;-71
2022/10/24 11:24:20;;;;;;;7.40;1.87;;;18.20;99.90;;;;;;5054134;28;20431;-71
2022/10/24 11:26:52;;;;;;;3.13;1.90;;;18.20;99.90;;;;;;5053223;28;20471;-71
2022/10/24 11:29:47;;;;;;;5.70;1.60;;;18.20;99.90;;;;;;5053361;28;20381;-70
2022/10/24 11:32:55;;;;;;;2.07;1.60;;;18.20;99.90;;;;;;5052672;28;20842;-71
2022/10/24 11:35:28;;;;;;;6.17;1.77;;;18.10;99.90;;;;;;5043910;28;20543;-71
2022/10/24 11:38:17;;;;;;;3.17;1.80;;;18.10;99.90;;;;;;5052996;28;20939;-71
2022/10/24 11:40:44;;;;;;;3.87;1.30;;;18.00;99.90;;;;;;5052877;28;20441;-70
2022/10/24 11:43:48;;;;;;;3.63;1.57;;;18.00;99.90;;;;;;5053195;28;20401;-71
2022/10/24 11:46:23;;;;;;;6.07;1.70;;;18.10;99.90;;;;;;4991433;28;20462;-71
2022/10/24 11:48:59;;;;;;;2.60;1.30;;;18.20;99.90;;;;;;5044391;28;20452;-71
2022/10/24 11:51:36;;;;;;;2.90;1.40;;;18.20;99.90;;;;;;5052194;28;20930;-71
2022/10/24 11:54:16;;;;;;;2.30;1.50;;;18.10;99.90;;;;;;5052253;28;20412;-71
2022/10/24 11:56:47;;;;;;;3.30;1.37;;;18.50;99.90;;;;;;5052958;28;20463;-71
2022/10/24 11:59:22;;;;;;;2.37;1.40;;;18.60;99.90;;;;;;5052824;28;20434;-71
2022/10/24 12:01:54;;;;;;;4.07;1.37;;;18.40;99.90;;;;;;5052552;28;20385;-71
2022/10/24 12:04:29;;;;;;;2.53;1.40;;;18.50;99.90;;;;;;5052562;28;20408;-71
2022/10/24 12:07:03;;;;;;;2.67;1.57;;;18.50;99.90;;;;;;5033816;28;20464;-71
2022/10/24 12:09:51;;;;;;;5.53;2.20;;;18.60;99.90;;;;;;5052383;28;20897;-71
2022/10/24 12:12:26;;;;;;;2.00;1.00;;;18.40;99.90;;;;;;5052242;28;20401;-71
2022/10/24 12:15:03;;;;;;;3.90;1.50;;;18.50;99.90;;;;;;5052492;28;20399;-71
2022/10/24 12:17:53;;;;;;;2.90;1.40;;;18.70;99.90;;;;;;5049915;28;20484;-72
2022/10/24 12:20:20;;;;;;;2.90;1.37;;;18.80;99.90;;;;;;5052431;28;20565;-71
2022/10/24 12:22:47;;;;;;;3.57;1.70;;;18.90;99.90;;;;;;5052184;28;20575;-71
2022/10/24 12:25:35;;;;;;;1.93;1.10;;;18.90;99.90;;;;;;5051846;28;20535;-71
2022/10/24 12:28:24;;;;;;;2.10;1.07;;;19.00;99.90;;;;;;5052854;28;20786;-71
2022/10/24 12:31:08;;;;;;;3.17;1.10;;;18.90;99.90;;;;;;5052107;28;20390;-71
2022/10/24 12:33:34;;;;;;;2.13;1.37;;;18.90;99.90;;;;;;5051415;28;20431;-71
2022/10/24 12:35:59;;;;;;;4.40;1.37;;;18.80;99.90;;;;;;5051860;28;20416;-71
2022/10/24 12:38:28;;;;;;;1.73;1.23;;;18.90;99.90;;;;;;5051808;28;20198;-71
2022/10/24 12:40:56;;;;;;;4.20;1.33;;;18.90;99.90;;;;;;5050161;28;20171;-71
2022/10/24 12:43:31;;;;;;;2.47;1.20;;;18.80;99.90;;;;;;5051983;28;20498;-71
2022/10/24 12:46:00;;;;;;;2.53;0.93;;;18.80;99.90;;;;;;5051531;28;20448;-71
2022/10/24 12:48:30;;;;;;;1.30;0.90;;;18.70;99.90;;;;;;5051521;28;20444;-71
2022/10/24 12:51:02;;;;;;;3.47;1.30;;;18.70;99.90;;;;;;5040854;28;20405;-71
2022/10/24 12:53:59;;;;;;;1.10;0.90;;;18.70;99.90;;;;;;5052130;28;20389;-71
2022/10/24 12:56:25;;;;;;;2.97;1.20;;;18.60;99.90;;;;;;5051266;28;20429;-71
2022/10/24 12:59:17;;;;;;;2.60;0.90;;;18.90;99.90;;;;;;5051946;28;20405;-71
2022/10/24 13:01:43;;;;;;;1.13;0.80;;;19.20;99.90;;;;;;5051570;28;20655;-71
2022/10/24 13:04:38;;;;;;;2.20;1.27;;;19.30;99.90;;;;;;5052242;28;20421;-71
2022/10/24 13:07:34;;;;;;;1.53;1.10;;;19.50;99.90;;;;;;5055978;28;20440;-71